Time;durP1;ratioP1;P1;durP2;ratioP2;P2;SDS_P1;SDS_P2;PMS_P1;PMS_P2;Temp;Humidity;BMP_temperature;BMP_pressure;BME280_temperature;BME280_humidity;BME280_pressure;Samples;Min_cycle;Max_cycle;Signal;HPM_P1;HPM_P2
2023/05/04 00:00:26;;;;;;;8.50;6.75;;;;;;;9.06;71.08;102200.44;4986610;28;20473;-63
2023/05/04 00:02:51;;;;;;;10.05;6.90;;;;;;;9.17;70.63;102201.88;4986488;28;20740;-64
2023/05/04 00:05:17;;;;;;;10.13;6.78;;;;;;;9.18;70.10;102192.63;4987159;28;20564;-66
2023/05/04 00:07:42;;;;;;;8.50;7.22;;;;;;;9.15;70.43;102193.00;4987747;28;20030;-66
2023/05/04 00:10:08;;;;;;;9.05;7.13;;;;;;;9.12;70.83;102187.03;4986476;28;20385;-67
2023/05/04 00:12:33;;;;;;;10.68;6.47;;;;;;;9.03;71.18;102191.78;4985172;28;20030;-65
2023/05/04 00:14:58;;;;;;;7.63;6.30;;;;;;;9.05;70.60;102182.31;4986460;28;20030;-66
2023/05/04 00:17:24;;;;;;;10.68;7.07;;;;;;;8.93;71.30;102172.03;4969256;28;20041;-66
2023/05/04 00:19:49;;;;;;;10.05;7.53;;;;;;;8.92;71.88;102173.91;4985662;28;20192;-67
2023/05/04 00:22:14;;;;;;;10.25;6.38;;;;;;;9.08;70.73;102171.00;4986963;28;20027;-65
2023/05/04 00:24:42;;;;;;;9.20;7.00;;;;;;;8.90;72.13;102172.38;4986334;28;20023;-66
2023/05/04 00:27:09;;;;;;;10.95;6.68;;;;;;;8.85;71.73;102170.19;4985244;28;20034;-66
2023/05/04 00:29:34;;;;;;;9.07;7.40;;;;;;;8.95;71.86;102167.19;4987304;28;20022;-63
2023/05/04 00:32:00;;;;;;;10.52;7.65;;;;;;;8.94;71.39;102162.75;4985192;28;20948;-66
2023/05/04 00:34:25;;;;;;;10.88;7.38;;;;;;;9.03;70.95;102164.38;4986827;28;20042;-66
2023/05/04 00:36:51;;;;;;;10.70;6.65;;;;;;;9.08;70.40;102153.69;4985709;28;20031;-67
2023/05/04 00:39:16;;;;;;;12.07;7.53;;;;;;;8.86;71.94;102157.34;4986713;28;20026;-63
2023/05/04 00:41:42;;;;;;;9.32;7.40;;;;;;;9.09;70.81;102156.25;4986037;28;20120;-67
2023/05/04 00:44:08;;;;;;;8.50;5.47;;;;;;;9.00;70.69;102162.84;4984132;28;20109;-67
2023/05/04 00:46:33;;;;;;;8.00;5.82;;;;;;;8.95;71.28;102153.50;4985587;28;20049;-63
2023/05/04 00:48:58;;;;;;;9.88;6.90;;;;;;;9.22;69.42;102155.56;4985740;28;20029;-67
2023/05/04 00:51:25;;;;;;;8.57;6.95;;;;;;;8.97;71.71;102146.81;4985340;28;20030;-65
2023/05/04 00:53:52;;;;;;;10.73;7.35;;;;;;;8.94;71.67;102146.31;4985352;28;20023;-63
2023/05/04 00:56:21;;;;;;;9.13;6.97;;;;;;;8.75;72.79;102145.81;4985937;28;20076;-65
2023/05/04 00:58:46;;;;;;;8.18;7.20;;;;;;;8.82;72.60;102138.56;4984733;28;20042;-66
2023/05/04 01:01:12;;;;;;;7.88;6.45;;;;;;;9.04;70.42;102138.66;4991408;28;20084;-65
2023/05/04 01:03:37;;;;;;;7.78;5.45;;;;;;;9.05;70.29;102143.09;4989566;28;20038;-66
2023/05/04 01:06:18;;;;;;;8.98;7.18;;;;;;;8.74;72.99;102140.53;4989525;28;20484;-66
2023/05/04 01:08:56;;;;;;;10.10;7.57;;;;;;;8.75;72.97;102143.06;4988592;28;20484;-66
2023/05/04 01:11:33;;;;;;;11.25;7.57;;;;;;;8.69;73.89;102137.50;4989553;28;20049;-67
2023/05/04 01:14:00;;;;;;;9.00;7.25;;;;;;;8.61;74.09;102135.69;4990237;28;20026;-64
2023/05/04 01:16:26;;;;;;;9.02;7.25;;;;;;;8.54;74.08;102135.59;4990163;28;20034;-67
2023/05/04 01:18:51;;;;;;;10.27;7.53;;;;;;;8.49;74.67;102127.06;4989649;28;20026;-64
2023/05/04 01:21:16;;;;;;;8.70;7.00;;;;;;;8.64;73.57;102118.88;4990585;28;20021;-67
2023/05/04 01:23:41;;;;;;;7.75;5.78;;;;;;;8.83;72.32;102117.50;4990156;28;20075;-67
2023/05/04 01:26:15;;;;;;;9.43;7.43;;;;;;;8.55;74.45;102115.38;4988504;28;20053;-67
2023/05/04 01:28:48;;;;;;;10.70;7.13;;;;;;;8.45;74.62;102114.78;4989649;28;20045;-67
2023/05/04 01:31:15;;;;;;;9.00;6.55;;;;;;;8.50;74.60;102115.06;4989642;28;20026;-66
2023/05/04 01:33:43;;;;;;;11.27;7.03;;;;;;;8.50;74.84;102123.28;4990359;28;20489;-66
2023/05/04 01:36:08;;;;;;;9.17;7.23;;;;;;;8.26;75.89;102113.41;4988378;28;20038;-67
2023/05/04 01:38:34;;;;;;;10.00;8.13;;;;;;;8.27;76.39;102108.78;4989180;28;20030;-67
2023/05/04 01:40:59;;;;;;;8.60;6.22;;;;;;;8.43;74.88;102116.03;4989071;28;20093;-65
2023/05/04 01:43:24;;;;;;;9.02;7.10;;;;;;;8.32;75.45;102112.66;4988847;28;20022;-67
2023/05/04 01:45:50;;;;;;;11.43;8.10;;;;;;;8.36;75.53;102115.00;4989571;28;20065;-66
2023/05/04 01:48:15;;;;;;;10.32;7.57;;;;;;;8.16;76.79;102114.66;4983286;28;20131;-66
2023/05/04 01:50:41;;;;;;;8.30;7.20;;;;;;;8.09;77.16;102113.72;4989109;28;20042;-66
2023/05/04 01:53:06;;;;;;;10.55;7.38;;;;;;;8.22;76.69;102108.47;4988913;28;20643;-65
2023/05/04 01:55:31;;;;;;;8.75;7.78;;;;;;;8.15;77.80;102111.09;4989794;28;20038;-67
2023/05/04 01:57:56;;;;;;;9.25;7.60;;;;;;;8.18;77.05;102113.47;4988137;28;20112;-65
2023/05/04 02:00:22;;;;;;;10.60;7.70;;;;;;;8.15;77.77;102119.28;5002398;28;20501;-66
2023/05/04 02:02:47;;;;;;;10.80;7.72;;;;;;;8.17;76.91;102119.13;4989105;28;20065;-64
2023/05/04 02:05:12;;;;;;;11.07;8.13;;;;;;;7.97;79.18;102122.34;4988165;28;20030;-66
2023/05/04 02:07:38;;;;;;;9.48;7.53;;;;;;;7.94;78.10;102119.97;4988459;28;20114;-67
2023/05/04 02:10:03;;;;;;;8.90;7.22;;;;;;;8.05;78.11;102125.00;4988428;28;20034;-65
2023/05/04 02:12:29;;;;;;;9.90;7.63;;;;;;;8.06;78.14;102114.94;4987872;28;20069;-66
2023/05/04 02:14:54;;;;;;;10.07;8.00;;;;;;;7.90;79.25;102109.56;4988998;28;20193;-67
2023/05/04 02:17:19;;;;;;;11.60;7.88;;;;;;;7.93;79.15;102114.69;4989528;28;20023;-66
2023/05/04 02:19:45;;;;;;;10.23;7.82;;;;;;;7.88;78.64;102112.50;4988660;28;20089;-67
2023/05/04 02:22:10;;;;;;;9.55;7.65;;;;;;;7.89;78.92;102114.19;4989274;28;20023;-65
2023/05/04 02:24:35;;;;;;;10.25;7.85;;;;;;;7.79;79.49;102117.16;4989007;28;20402;-66
2023/05/04 02:27:01;;;;;;;11.57;8.05;;;;;;;7.82;79.88;102112.38;4988323;28;20030;-67
2023/05/04 02:29:26;;;;;;;11.23;7.55;;;;;;;7.97;79.06;102116.03;4988709;28;20472;-67
2023/05/04 02:31:52;;;;;;;11.18;8.15;;;;;;;7.71;79.82;102103.56;4988527;28;20109;-65
2023/05/04 02:34:17;;;;;;;9.90;8.25;;;;;;;7.75;80.01;102102.16;4987601;28;20081;-65
2023/05/04 02:36:42;;;;;;;10.30;7.97;;;;;;;7.71;79.99;102098.09;4986910;28;20068;-66
2023/05/04 02:39:07;;;;;;;9.90;7.10;;;;;;;7.88;79.31;102089.78;4988950;28;20018;-65
2023/05/04 02:41:33;;;;;;;9.85;7.38;;;;;;;7.67;80.83;102091.28;4988099;28;20549;-67
2023/05/04 02:43:58;;;;;;;10.38;7.88;;;;;;;7.71;80.17;102095.38;4988459;28;20038;-66
2023/05/04 02:46:25;;;;;;;10.00;8.20;;;;;;;7.60;81.18;102090.28;4987327;28;20045;-65
2023/05/04 02:48:50;;;;;;;10.07;8.05;;;;;;;7.52;81.48;102090.34;4987191;28;20034;-67
2023/05/04 02:51:17;;;;;;;9.10;7.22;;;;;;;7.63;80.64;102089.94;4987141;28;20077;-64
2023/05/04 02:53:43;;;;;;;10.77;8.23;;;;;;;7.56;81.68;102093.59;4988307;28;20045;-66
2023/05/04 02:56:08;;;;;;;10.20;8.02;;;;;;;7.52;81.50;102095.81;4987551;28;20031;-64
2023/05/04 02:58:33;;;;;;;10.43;7.95;;;;;;;7.44;82.33;102096.72;4989041;28;20429;-66
2023/05/04 03:00:59;;;;;;;9.57;7.35;;;;;;;7.46;82.35;102094.66;4988631;28;20018;-66
2023/05/04 03:03:24;;;;;;;10.23;7.72;;;;;;;7.38;82.76;102089.22;4988802;28;20480;-66
2023/05/04 03:05:49;;;;;;;10.55;8.15;;;;;;;7.37;83.01;102086.69;4988356;28;20038;-64
2023/05/04 03:08:15;;;;;;;10.45;7.70;;;;;;;7.48;81.46;102080.81;4989203;28;20022;-66
2023/05/04 03:10:40;;;;;;;10.55;7.80;;;;;;;7.39;81.90;102087.34;4988704;28;20031;-66
2023/05/04 03:13:05;;;;;;;9.80;8.10;;;;;;;7.25;83.35;102098.03;4987503;28;20030;-67
2023/05/04 03:15:34;;;;;;;10.65;8.23;;;;;;;7.28;83.25;102094.91;4986691;28;20030;-64
2023/05/04 03:17:59;;;;;;;10.23;8.50;;;;;;;7.19;83.90;102090.50;4984780;28;20117;-65
2023/05/04 03:20:25;;;;;;;9.93;7.75;;;;;;;7.47;82.10;102095.50;4987692;28;20161;-66
2023/05/04 03:22:50;;;;;;;10.23;7.97;;;;;;;7.29;83.13;102095.75;4986641;28;20030;-67
2023/05/04 03:25:15;;;;;;;10.60;7.93;;;;;;;7.23;83.50;102091.88;4987986;28;20457;-66
2023/05/04 03:27:41;;;;;;;10.23;7.85;;;;;;;7.15;84.09;102083.72;4984761;28;20038;-67
2023/05/04 03:30:07;;;;;;;9.23;7.88;;;;;;;7.17;83.95;102073.47;4986128;28;20027;-65
2023/05/04 03:32:32;;;;;;;10.15;7.60;;;;;;;7.20;83.60;102077.72;4985225;28;20092;-66
2023/05/04 03:34:57;;;;;;;9.05;7.97;;;;;;;7.11;84.74;102076.06;4985868;28;20042;-64
2023/05/04 03:37:23;;;;;;;8.80;7.90;;;;;;;7.12;84.47;102070.41;4986385;28;20121;-65
2023/05/04 03:39:48;;;;;;;10.63;8.02;;;;;;;7.16;84.88;102066.31;4986699;28;20097;-65
2023/05/04 03:42:13;;;;;;;9.85;7.43;;;;;;;7.16;84.53;102063.56;4986695;28;20432;-66
2023/05/04 03:44:38;;;;;;;10.10;8.23;;;;;;;7.12;84.66;102058.63;4986362;28;20050;-67
2023/05/04 03:47:04;;;;;;;9.70;8.02;;;;;;;7.05;85.49;102055.78;4986598;28;20022;-66
2023/05/04 03:49:29;;;;;;;9.18;7.63;;;;;;;7.07;84.81;102052.84;4986775;28;20457;-67
2023/05/04 03:51:54;;;;;;;12.10;7.82;;;;;;;6.99;85.56;102059.19;4986205;28;20120;-63
2023/05/04 03:54:20;;;;;;;9.60;8.05;;;;;;;6.99;85.95;102051.00;4986708;28;20035;-66
2023/05/04 03:56:45;;;;;;;9.77;7.70;;;;;;;7.01;85.58;102054.44;4987393;28;20053;-63
2023/05/04 03:59:10;;;;;;;8.90;7.70;;;;;;;7.00;85.45;102055.47;4987146;28;20042;-65
2023/05/04 04:01:36;;;;;;;10.10;7.93;;;;;;;7.03;85.64;102055.09;4987403;28;20023;-66
2023/05/04 04:04:01;;;;;;;9.55;7.68;;;;;;;6.97;86.31;102051.19;4984526;28;20042;-66
2023/05/04 04:06:26;;;;;;;9.45;8.10;;;;;;;7.00;85.61;102050.84;4984825;28;20031;-65
2023/05/04 04:08:52;;;;;;;8.77;7.55;;;;;;;7.07;85.39;102055.59;4987024;28;20061;-67
2023/05/04 04:11:17;;;;;;;10.10;8.38;;;;;;;6.96;86.32;102049.50;4986451;28;20031;-66
2023/05/04 04:13:42;;;;;;;8.93;7.40;;;;;;;6.97;86.42;102055.81;4986892;28;20109;-64
2023/05/04 04:16:07;;;;;;;9.55;7.88;;;;;;;6.98;86.46;102055.63;4986167;28;20057;-66
2023/05/04 04:18:33;;;;;;;11.02;8.50;;;;;;;7.04;86.27;102054.03;4986796;28;20058;-65
2023/05/04 04:20:58;;;;;;;8.90;7.70;;;;;;;6.98;86.89;102054.75;4985433;28;20063;-66
2023/05/04 04:23:24;;;;;;;10.18;7.70;;;;;;;6.99;86.61;102048.28;4986994;28;20101;-66
2023/05/04 04:25:50;;;;;;;10.07;8.18;;;;;;;7.00;87.27;102053.56;4985687;28;20077;-65
2023/05/04 04:28:15;;;;;;;10.48;7.90;;;;;;;7.02;86.55;102045.19;4987221;28;20105;-66
2023/05/04 04:30:41;;;;;;;10.65;7.47;;;;;;;7.07;86.14;102041.94;4987397;28;20064;-65
2023/05/04 04:33:06;;;;;;;10.30;7.57;;;;;;;7.07;86.85;102037.31;4986268;28;20101;-66
2023/05/04 04:35:32;;;;;;;10.02;7.93;;;;;;;7.09;86.64;102040.72;4989491;28;20073;-64
2023/05/04 04:37:57;;;;;;;8.85;7.38;;;;;;;7.15;86.35;102044.63;4989860;28;20462;-66
2023/05/04 04:40:23;;;;;;;10.10;7.60;;;;;;;7.17;86.07;102042.56;4990718;28;20038;-65
2023/05/04 04:42:48;;;;;;;10.82;8.07;;;;;;;7.20;85.94;102034.88;4989102;28;20046;-66
2023/05/04 04:45:14;;;;;;;10.10;7.40;;;;;;;7.26;86.15;102038.75;4990477;28;20460;-66
2023/05/04 04:47:40;;;;;;;9.93;7.43;;;;;;;7.31;86.70;102038.22;4986428;28;20062;-62
2023/05/04 04:50:06;;;;;;;10.20;7.50;;;;;;;7.33;86.29;102041.63;4991052;28;20105;-65
2023/05/04 04:52:32;;;;;;;10.63;7.55;;;;;;;7.39;85.40;102040.88;4989559;28;20409;-65
2023/05/04 04:54:57;;;;;;;11.45;7.93;;;;;;;7.43;85.27;102032.16;4988793;28;20026;-66
2023/05/04 04:57:22;;;;;;;12.13;6.88;;;;;;;7.66;82.95;102028.59;4989550;28;20026;-65
2023/05/04 04:59:48;;;;;;;9.95;7.82;;;;;;;7.50;84.92;102035.00;4990586;28;20023;-63
2023/05/04 05:02:13;;;;;;;9.38;7.18;;;;;;;7.52;84.75;102041.16;4986678;28;20109;-62
2023/05/04 05:04:40;;;;;;;8.98;7.43;;;;;;;7.57;84.60;102040.59;4988570;28;20034;-64
2023/05/04 05:07:07;;;;;;;10.40;7.63;;;;;;;7.67;84.00;102038.47;4986638;28;20061;-68
2023/05/04 05:09:33;;;;;;;9.33;7.57;;;;;;;7.57;84.77;102033.25;4989714;28;20504;-62
2023/05/04 05:11:58;;;;;;;9.15;6.97;;;;;;;7.65;84.67;102030.44;4989565;28;20324;-64
2023/05/04 05:14:23;;;;;;;11.27;7.13;;;;;;;7.85;83.00;102040.88;4989626;28;20449;-62
2023/05/04 05:16:49;;;;;;;9.27;7.45;;;;;;;7.64;84.11;102047.88;4988342;28;20039;-65
2023/05/04 05:19:14;;;;;;;9.77;7.50;;;;;;;7.66;84.55;102042.25;4987902;28;20037;-62
2023/05/04 05:21:39;;;;;;;9.85;7.40;;;;;;;7.82;83.21;102049.47;4990071;28;20022;-64
2023/05/04 05:24:05;;;;;;;9.75;7.50;;;;;;;7.75;84.27;102047.47;4989837;28;20031;-65
2023/05/04 05:26:30;;;;;;;9.35;7.70;;;;;;;7.79;84.74;102047.94;4989018;28;20034;-63
2023/05/04 05:28:56;;;;;;;8.55;7.32;;;;;;;7.86;84.47;102048.09;4988685;28;20019;-63
2023/05/04 05:31:21;;;;;;;9.85;7.47;;;;;;;7.96;83.42;102044.06;4988577;28;20041;-65
2023/05/04 05:33:47;;;;;;;12.50;8.38;;;;;;;7.94;83.93;102040.63;4989634;28;20057;-65
2023/05/04 05:36:13;;;;;;;9.90;7.25;;;;;;;8.00;83.93;102050.84;4988553;28;20030;-61
2023/05/04 05:38:38;;;;;;;8.80;7.32;;;;;;;8.19;82.60;102048.63;4989606;28;20053;-64
2023/05/04 05:41:04;;;;;;;9.52;7.53;;;;;;;8.12;83.12;102045.78;4985958;28;21033;-65
2023/05/04 05:43:29;;;;;;;8.63;7.35;;;;;;;8.20;83.37;102048.44;4989114;28;20096;-63
2023/05/04 05:45:55;;;;;;;9.30;7.35;;;;;;;8.37;82.35;102049.19;4986724;28;20141;-64
2023/05/04 05:48:20;;;;;;;10.43;7.35;;;;;;;8.37;82.02;102043.72;4987555;28;20030;-64
2023/05/04 05:50:45;;;;;;;11.43;7.75;;;;;;;8.50;81.72;102043.88;4986937;28;20041;-61
2023/05/04 05:53:10;;;;;;;11.45;8.38;;;;;;;8.53;81.89;102039.94;4986389;28;20030;-66
2023/05/04 05:55:36;;;;;;;12.43;8.07;;;;;;;8.62;81.40;102044.28;4988032;28;20488;-63
2023/05/04 05:58:01;;;;;;;10.00;7.80;;;;;;;8.70;81.35;102035.97;4989192;28;20030;-67
2023/05/04 06:00:26;;;;;;;9.55;7.88;;;;;;;8.86;80.58;102042.28;4988408;28;20031;-66
2023/05/04 06:02:52;;;;;;;13.20;7.55;;;;;;;8.91;80.21;102035.19;4989090;28;20042;-65
2023/05/04 06:05:17;;;;;;;9.73;7.57;;;;;;;8.96;80.37;102034.63;4989010;28;20034;-67
2023/05/04 06:07:42;;;;;;;9.75;7.32;;;;;;;9.07;79.29;102026.78;4989457;28;20030;-65
2023/05/04 06:10:08;;;;;;;11.85;7.43;;;;;;;9.03;79.13;102022.72;4989444;28;20033;-66
2023/05/04 06:12:33;;;;;;;12.88;9.35;;;;;;;9.10;79.60;102020.91;4981985;28;20057;-65
2023/05/04 06:14:59;;;;;;;9.52;7.55;;;;;;;9.16;78.62;102029.38;4987806;28;20401;-67
2023/05/04 06:17:24;;;;;;;9.30;7.32;;;;;;;9.18;78.05;102021.84;4980899;28;20485;-66
2023/05/04 06:19:50;;;;;;;9.40;7.35;;;;;;;9.30;78.24;102012.06;4969523;28;20057;-66
2023/05/04 06:22:15;;;;;;;9.35;6.90;;;;;;;9.29;78.97;101996.66;4969888;28;20049;-66
2023/05/04 06:24:41;;;;;;;9.02;7.47;;;;;;;9.41;78.41;101999.72;4969763;28;20037;-65
2023/05/04 06:27:06;;;;;;;9.40;7.05;;;;;;;9.50;77.98;101993.94;4968824;28;20037;-66
2023/05/04 06:29:31;;;;;;;10.35;7.55;;;;;;;9.55;79.18;101996.09;4976345;28;20022;-64
2023/05/04 06:31:57;;;;;;;10.23;7.57;;;;;;;9.64;77.41;101996.81;4988586;28;20117;-65
2023/05/04 06:34:23;;;;;;;10.20;7.72;;;;;;;9.74;77.27;101992.69;5008741;28;20080;-66
2023/05/04 06:36:48;;;;;;;9.95;7.38;;;;;;;9.93;77.31;101987.56;5006307;28;20030;-65
2023/05/04 06:39:14;;;;;;;8.90;6.90;;;;;;;10.01;75.77;101991.00;5008456;28;20026;-65
2023/05/04 06:41:39;;;;;;;12.13;7.40;;;;;;;10.07;76.07;101981.97;5007464;28;20496;-65
2023/05/04 06:44:06;;;;;;;9.40;7.32;;;;;;;10.17;76.19;101983.53;5007926;28;20049;-67
2023/05/04 06:46:36;;;;;;;9.35;6.95;;;;;;;10.37;74.45;101985.38;5007769;28;20180;-66
2023/05/04 06:49:03;;;;;;;10.55;7.03;;;;;;;10.51;74.00;101989.06;5008388;28;20429;-66
2023/05/04 06:51:28;;;;;;;8.90;6.45;;;;;;;10.64;73.31;101980.03;5007725;28;20024;-63
2023/05/04 06:53:54;;;;;;;8.68;7.22;;;;;;;10.69;72.42;101977.53;5007885;28;20112;-66
2023/05/04 06:56:20;;;;;;;8.95;6.78;;;;;;;10.83;72.09;101976.53;5006845;28;20064;-65
2023/05/04 06:58:45;;;;;;;9.88;7.15;;;;;;;10.93;73.96;101980.81;5008002;28;20462;-66
2023/05/04 07:01:11;;;;;;;9.35;6.82;;;;;;;11.04;72.97;101985.72;5007640;28;20050;-65
2023/05/04 07:03:36;;;;;;;9.75;6.85;;;;;;;11.15;71.71;101974.97;5008291;28;20671;-67
2023/05/04 07:06:02;;;;;;;9.60;6.72;;;;;;;11.25;71.52;101976.47;5007308;28;20037;-66
2023/05/04 07:08:27;;;;;;;8.80;6.68;;;;;;;11.37;71.69;101978.41;5007662;28;20029;-65
2023/05/04 07:10:53;;;;;;;8.95;6.97;;;;;;;11.51;71.42;101975.69;5006759;28;20037;-66
2023/05/04 07:13:18;;;;;;;9.38;7.03;;;;;;;11.63;71.33;101969.34;5008049;28;20018;-63
2023/05/04 07:15:43;;;;;;;9.35;6.47;;;;;;;11.72;70.20;101970.00;5004955;28;20030;-67
2023/05/04 07:18:09;;;;;;;10.00;6.00;;;;;;;11.76;69.60;101956.63;4987746;28;20034;-66
2023/05/04 07:20:34;;;;;;;10.23;6.40;;;;;;;11.85;69.57;101955.41;4988089;28;20530;-66
2023/05/04 07:22:59;;;;;;;8.30;6.35;;;;;;;11.96;67.68;101943.75;4987562;28;20045;-67
2023/05/04 07:25:25;;;;;;;9.90;5.90;;;;;;;12.19;67.63;101952.41;4986812;28;20057;-64
2023/05/04 07:27:51;;;;;;;9.40;5.93;;;;;;;12.26;66.77;101951.56;4987905;28;20030;-66
2023/05/04 07:30:18;;;;;;;10.70;5.95;;;;;;;12.37;66.72;101946.25;4988403;28;20045;-64
2023/05/04 07:32:43;;;;;;;8.13;6.10;;;;;;;12.57;67.52;101948.94;4987854;28;20073;-66
2023/05/04 07:35:09;;;;;;;11.88;6.10;;;;;;;12.74;64.53;101935.50;4987922;28;20066;-63
2023/05/04 07:37:35;;;;;;;9.32;5.78;;;;;;;12.90;63.37;101948.81;4987350;28;20023;-66
2023/05/04 07:40:00;;;;;;;9.85;5.40;;;;;;;13.07;64.37;101938.09;4987695;28;20034;-65
2023/05/04 07:42:26;;;;;;;9.25;5.40;;;;;;;13.19;62.57;101938.25;4986688;28;20037;-67
2023/05/04 07:44:52;;;;;;;7.85;5.65;;;;;;;13.20;63.10;101943.53;4987074;28;20509;-66
2023/05/04 07:47:18;;;;;;;8.75;5.80;;;;;;;13.28;63.39;101936.97;4987469;28;20028;-64
2023/05/04 07:49:43;;;;;;;8.18;5.63;;;;;;;13.38;62.72;101940.09;4987943;28;20046;-62
2023/05/04 07:52:08;;;;;;;8.32;5.63;;;;;;;13.43;62.42;101937.50;4986990;28;20113;-65
2023/05/04 07:54:33;;;;;;;9.25;5.57;;;;;;;13.64;63.30;101932.69;4987445;28;20373;-66
2023/05/04 07:57:02;;;;;;;9.00;5.60;;;;;;;13.86;61.30;101933.13;4985970;28;20026;-66
2023/05/04 07:59:27;;;;;;;8.07;5.60;;;;;;;13.97;62.84;101935.97;4987446;28;20533;-66
2023/05/04 08:01:52;;;;;;;10.50;5.82;;;;;;;14.11;60.41;101941.38;4982123;28;20082;-62
2023/05/04 08:04:18;;;;;;;10.30;5.85;;;;;;;14.18;60.63;101939.38;4967906;28;20109;-64
2023/05/04 08:06:43;;;;;;;9.45;5.38;;;;;;;14.30;61.75;101937.59;4967872;28;20078;-67
2023/05/04 08:09:08;;;;;;;8.52;5.68;;;;;;;14.32;61.74;101932.66;4966170;28;20486;-63
2023/05/04 08:11:34;;;;;;;9.73;5.53;;;;;;;14.36;58.58;101933.91;4966216;28;20026;-66
2023/05/04 08:14:00;;;;;;;10.57;5.70;;;;;;;14.50;58.76;101927.19;4967224;28;20054;-64
2023/05/04 08:16:26;;;;;;;9.38;5.38;;;;;;;14.71;59.66;101923.09;4976877;28;20044;-65
2023/05/04 08:18:52;;;;;;;8.88;5.82;;;;;;;14.85;59.63;101921.00;4986945;28;20030;-64
2023/05/04 08:21:17;;;;;;;9.82;5.93;;;;;;;14.93;56.57;101920.66;4986399;28;20029;-62
2023/05/04 08:23:42;;;;;;;8.48;5.95;;;;;;;15.01;57.78;101911.22;4987665;28;20393;-65
2023/05/04 08:26:08;;;;;;;9.13;5.80;;;;;;;15.11;58.41;101905.97;4985766;28;20114;-64
2023/05/04 08:28:38;;;;;;;7.72;6.03;;;;;;;15.29;58.48;101913.34;4987104;28;20033;-61
2023/05/04 08:31:04;;;;;;;8.43;5.70;;;;;;;15.43;58.75;101903.75;4986798;28;20084;-65
2023/05/04 08:33:29;;;;;;;7.50;5.53;;;;;;;15.56;55.90;101906.31;4987117;28;20030;-62
2023/05/04 08:35:54;;;;;;;8.13;5.65;;;;;;;15.66;55.54;101899.38;4986318;28;20038;-65
2023/05/04 08:38:20;;;;;;;7.85;5.50;;;;;;;15.81;56.37;101899.75;4987072;28;20034;-63
2023/05/04 08:40:45;;;;;;;8.73;5.57;;;;;;;15.86;54.08;101899.03;4986095;28;20034;-62
2023/05/04 08:43:10;;;;;;;9.98;5.75;;;;;;;15.83;55.23;101903.97;4987238;28;20034;-65
2023/05/04 08:45:39;;;;;;;9.05;5.90;;;;;;;15.92;56.02;101895.31;4986683;28;20054;-65
2023/05/04 08:48:06;;;;;;;8.63;5.63;;;;;;;16.05;53.56;101889.50;4987154;28;20713;-65
2023/05/04 08:50:36;;;;;;;7.95;5.50;;;;;;;16.23;54.87;101891.31;4987063;28;20030;-64
2023/05/04 08:53:04;;;;;;;6.82;4.88;;;;;;;16.50;55.22;101884.13;4986239;28;20073;-65
2023/05/04 08:55:32;;;;;;;7.25;4.90;;;;;;;16.73;56.44;101879.66;4986133;28;20022;-65
2023/05/04 08:58:00;;;;;;;;;;;;;;;16.99;53.63;101870.72;4987095;28;20026;-62
2023/05/04 09:00:26;;;;;;;8.98;6.13;;;;;;;17.04;52.59;101859.72;4986903;28;20304;-65
2023/05/04 09:02:52;;;;;;;8.38;4.90;;;;;;;17.19;50.82;101852.78;4986278;28;20034;-63
2023/05/04 09:05:17;;;;;;;8.77;5.50;;;;;;;17.28;51.32;101851.25;4987425;28;20042;-65
2023/05/04 09:07:42;;;;;;;10.00;5.40;;;;;;;17.53;51.74;101842.50;4985906;28;20045;-62
2023/05/04 09:10:08;;;;;;;8.18;5.15;;;;;;;17.53;48.93;101837.78;4985322;28;20033;-65
2023/05/04 09:12:36;;;;;;;8.57;5.55;;;;;;;17.80;49.82;101842.69;4986656;28;20015;-64
2023/05/04 09:15:12;;;;;;;8.00;5.07;;;;;;;18.47;50.40;101842.50;4986193;28;20035;-65
2023/05/04 09:17:38;;;;;;;8.93;5.47;;;;;;;19.45;46.57;101839.63;4986541;28;20608;-66
2023/05/04 09:20:03;;;;;;;8.07;5.20;;;;;;;20.31;44.63;101836.59;4987133;28;20105;-62
2023/05/04 09:22:29;;;;;;;12.02;5.70;;;;;;;21.15;42.13;101843.88;4989582;28;20025;-66
2023/05/04 09:25:12;;;;;;;8.05;5.65;;;;;;;21.84;42.72;101844.44;4989163;28;20033;-64
2023/05/04 09:27:40;;;;;;;10.70;5.18;;;;;;;22.28;39.88;101847.44;4990031;28;20041;-65
2023/05/04 09:30:06;;;;;;;;;;;;;;;22.82;41.05;101834.59;4990294;28;20028;-64
2023/05/04 09:32:35;;;;;;;9.50;5.40;;;;;;;23.73;37.10;101833.94;4996617;28;19921;-66
2023/05/04 09:35:01;;;;;;;9.75;5.43;;;;;;;23.88;36.73;101837.72;5009217;28;20380;-62
2023/05/04 09:37:26;;;;;;;9.05;4.85;;;;;;;24.42;36.92;101839.34;5009173;28;20022;-61
2023/05/04 09:39:52;;;;;;;9.02;4.95;;;;;;;24.44;35.24;101829.50;5008402;28;20026;-65
2023/05/04 09:42:19;;;;;;;8.02;4.90;;;;;;;25.05;34.21;101825.00;5009443;28;20108;-64
2023/05/04 09:44:45;;;;;;;7.72;4.75;;;;;;;25.73;31.92;101818.78;5007871;28;20128;-65
2023/05/04 09:47:10;;;;;;;7.75;5.05;;;;;;;26.51;31.94;101819.84;5008930;28;20368;-63
2023/05/04 09:49:36;;;;;;;8.48;5.10;;;;;;;26.83;30.64;101818.81;5009149;28;20018;-63
2023/05/04 09:52:05;;;;;;;7.70;5.25;;;;;;;27.29;31.17;101831.00;5008390;28;20030;-66
2023/05/04 09:54:37;;;;;;;9.75;5.00;;;;;;;27.72;30.48;101817.22;5008915;28;20073;-66
2023/05/04 09:57:14;;;;;;;6.38;4.50;;;;;;;28.56;29.64;101819.06;5007936;28;20080;-64
2023/05/04 09:59:40;;;;;;;9.32;4.95;;;;;;;29.30;27.99;101820.97;5009228;28;20674;-66
2023/05/04 10:02:06;;;;;;;7.20;4.72;;;;;;;28.90;27.60;101821.13;5008852;28;20034;-66
2023/05/04 10:04:33;;;;;;;7.88;5.00;;;;;;;29.50;28.25;101810.09;5008881;28;20041;-65
2023/05/04 10:07:02;;;;;;;8.32;5.03;;;;;;;29.20;26.33;101807.19;5008327;28;20029;-66
2023/05/04 10:09:29;;;;;;;7.93;5.07;;;;;;;28.77;29.13;101802.31;5009315;28;20014;-61
2023/05/04 10:11:58;;;;;;;10.52;5.00;;;;;;;29.24;28.20;101791.16;5007632;28;20022;-65
2023/05/04 10:14:23;;;;;;;10.57;4.90;;;;;;;29.45;28.97;101782.81;5009139;28;20033;-65
2023/05/04 10:17:03;;;;;;;9.27;5.75;;;;;;;30.17;28.59;101770.63;4996539;28;20022;-65
2023/05/04 10:20:01;;;;;;;8.60;6.10;;;;;;;31.26;28.88;101778.16;4988291;28;20076;-66
2023/05/04 10:22:41;;;;;;;8.50;5.07;;;;;;;31.83;27.86;101770.03;4987960;28;20050;-66
2023/05/04 10:25:51;;;;;;;10.07;5.60;;;;;;;32.48;25.74;101760.44;4988209;28;20040;-67
2023/05/04 10:28:35;;;;;;;7.38;5.47;;;;;;;31.99;24.01;101751.94;4989625;28;20033;-66
2023/05/04 10:31:01;;;;;;;8.35;5.40;;;;;;;32.31;25.16;101757.84;4985574;28;20500;-63
2023/05/04 10:33:37;;;;;;;11.25;5.80;;;;;;;32.55;25.05;101751.31;4988238;28;20058;-66
2023/05/04 10:36:03;;;;;;;7.22;5.80;;;;;;;31.73;24.90;101745.72;4988704;28;20042;-66
2023/05/04 10:38:35;;;;;;;8.43;4.70;;;;;;;31.64;25.55;101725.13;4988728;28;20454;-62
2023/05/04 10:41:11;;;;;;;7.32;5.55;;;;;;;30.79;25.21;101729.34;4987377;28;20018;-63
2023/05/04 10:43:37;;;;;;;8.35;6.03;;;;;;;30.56;25.17;101719.47;4988622;28;20417;-66
2023/05/04 10:46:22;;;;;;;7.15;5.45;;;;;;;31.05;27.30;101722.59;4987917;28;20050;-66
2023/05/04 10:48:49;;;;;;;8.30;5.93;;;;;;;31.45;25.38;101705.81;4987331;28;20121;-62
2023/05/04 10:51:21;;;;;;;7.60;5.35;;;;;;;30.89;26.06;101706.22;4996564;28;20036;-64
2023/05/04 10:53:47;;;;;;;7.30;4.88;;;;;;;30.37;25.07;101698.13;5008339;28;20381;-62
2023/05/04 10:56:23;;;;;;;8.13;5.25;;;;;;;30.06;25.83;101686.28;5007282;28;20018;-65
2023/05/04 10:58:49;;;;;;;7.05;5.30;;;;;;;29.01;28.68;101683.06;5008039;28;20033;-61
2023/05/04 11:01:15;;;;;;;8.25;4.70;;;;;;;27.46;29.61;101677.94;5008337;28;20021;-65
2023/05/04 11:03:40;;;;;;;9.25;5.40;;;;;;;26.60;29.45;101674.22;5007826;28;20013;-66
2023/05/04 11:06:22;;;;;;;7.97;5.15;;;;;;;25.98;31.80;101659.03;5007387;28;20583;-64
2023/05/04 11:08:58;;;;;;;7.63;5.10;;;;;;;25.14;33.16;101662.94;5007875;28;20030;-66
2023/05/04 11:11:23;;;;;;;9.32;4.90;;;;;;;24.54;31.99;101657.22;5007218;28;20643;-66
2023/05/04 11:13:48;;;;;;;7.95;4.70;;;;;;;24.22;33.17;101660.75;5007703;28;20083;-66
2023/05/04 11:16:22;;;;;;;7.20;4.30;;;;;;;24.18;34.25;101660.53;5000431;28;20113;-66
2023/05/04 11:18:47;;;;;;;6.07;4.03;;;;;;;23.98;32.56;101658.03;4986803;28;20034;-62
2023/05/04 11:21:22;;;;;;;7.85;4.53;;;;;;;23.68;31.96;101657.28;4987822;28;20122;-67
2023/05/04 11:23:56;;;;;;;8.32;4.53;;;;;;;23.36;32.12;101651.44;4986863;28;20374;-64